Time;durP1;ratioP1;P1;durP2;ratioP2;P2;SDS_P1;SDS_P2;PMS_P1;PMS_P2;Temp;Humidity;BMP_temperature;BMP_pressure;BME280_temperature;BME280_humidity;BME280_pressure;Samples;Min_cycle;Max_cycle;Signal;HPM_P1;HPM_P2
2021/08/06 00:08:24;;;;;;;13.10;6.47;;;;;;;26.91;56.06;98890.78;1169874;23;21449;-74
2021/08/06 00:36:12;;;;;;;12.45;6.70;;;;;;;27.19;55.06;98894.50;1170460;23;21510;-74
2021/08/06 01:11:45;;;;;;;17.00;6.90;;;;;;;27.15;56.10;98861.88;1171986;23;21487;-75
2021/08/06 02:25:45;;;;;;;15.82;6.93;;;;;;;26.59;51.28;98803.06;1168776;23;21463;-75
2021/08/06 03:04:23;;;;;;;15.75;7.15;;;;;;;26.26;53.21;98809.47;1238564;23;21375;-72
2021/08/06 03:12:12;;;;;;;20.63;8.20;;;;;;;26.68;52.24;98826.50;1240464;23;21495;-74
2021/08/06 03:33:50;;;;;;;16.05;7.85;;;;;;;26.00;53.70;98821.09;1236931;23;20938;-74
2021/08/06 03:41:52;;;;;;;19.50;8.05;;;;;;;26.01;55.13;98826.13;1169678;23;20275;-76
2021/08/06 03:47:23;;;;;;;15.90;7.70;;;;;;;25.69;55.35;98829.66;1238453;23;20282;-75
2021/08/06 03:50:14;;;;;;;19.27;8.07;;;;;;;25.60;55.71;98829.84;3667987;24;20932;-73
2021/08/06 04:03:22;;;;;;;17.70;8.02;;;;;;;26.00;56.49;98816.72;1173012;23;20190;-72
2021/08/06 04:08:17;;;;;;;18.30;7.53;;;;;;;26.04;55.43;98804.97;3603683;24;20319;-73
2021/08/06 04:16:48;;;;;;;14.35;7.68;;;;;;;25.93;56.29;98799.31;3613860;23;20041;-74
2021/08/06 04:31:42;;;;;;;16.83;7.75;;;;;;;26.13;55.73;98817.00;3484661;41;20108;-71
2021/08/06 04:39:31;;;;;;;28.33;8.95;;;;;;;26.79;56.51;98815.66;3621893;23;20074;-73
2021/08/06 04:57:43;;;;;;;16.15;7.18;;;;;;;28.26;49.96;98840.06;1378788;23;21839;-69
2021/08/06 05:03:03;;;;;;;19.23;7.57;;;;;;;28.52;49.79;98843.94;3686867;23;20094;-70
2021/08/06 05:10:30;;;;;;;18.85;7.53;;;;;;;28.87;48.96;98843.94;1172107;23;20206;-73
2021/08/06 05:12:56;;;;;;;19.60;7.28;;;;;;;29.13;46.77;98840.75;1376982;23;20186;-72
2021/08/06 05:26:42;;;;;;;20.83;6.75;;;;;;;28.80;50.26;98808.25;1444008;23;21433;-73
2021/08/06 05:29:33;;;;;;;18.65;7.05;;;;;;;28.64;50.50;98816.34;3635666;23;20058;-73
2021/08/06 05:32:06;;;;;;;;;;;;;;;28.93;51.70;98822.25;3650913;23;20667;-73
2021/08/06 05:35:04;;;;;;;15.32;6.20;;;;;;;28.92;52.35;98818.00;1376698;23;20082;-72
2021/08/06 05:37:33;;;;;;;14.55;6.32;;;;;;;28.78;51.29;98818.09;1482716;24;21278;31
2021/08/06 05:47:54;;;;;;;16.10;6.47;;;;;;;28.81;49.96;98815.91;3483226;41;20045;-70
2021/08/06 05:50:23;;;;;;;15.18;6.05;;;;;;;29.02;48.82;98833.41;3482089;41;20072;-71
2021/08/06 05:52:49;;;;;;;18.83;6.05;;;;;;;29.14;47.65;98844.22;3484753;41;20050;-71
2021/08/06 05:55:16;;;;;;;14.93;5.78;;;;;;;29.40;46.36;98863.56;3482796;41;20086;-73
2021/08/06 06:08:51;;;;;;;13.52;7.35;;;;;;;30.43;44.23;98832.09;1171036;23;20202;-70
2021/08/06 06:14:39;;;;;;;14.38;5.70;;;;;;;30.50;44.28;98812.78;1238071;23;20126;-71
2021/08/06 06:17:12;;;;;;;16.27;5.97;;;;;;;30.58;42.77;98815.19;3615935;23;20117;-71
2021/08/06 06:28:00;;;;;;;10.80;5.50;;;;;;;30.42;42.75;98836.56;3614338;24;20049;-71
2021/08/06 06:33:27;;;;;;;12.77;5.50;;;;;;;30.24;43.07;98835.44;3622627;23;20081;-72
2021/08/06 06:36:18;;;;;;;15.27;5.80;;;;;;;30.50;42.75;98838.19;3656802;23;20053;-71
2021/08/06 06:44:21;;;;;;;11.93;5.85;;;;;;;30.77;42.58;98848.56;3618762;23;20109;-71
2021/08/06 06:46:50;;;;;;;16.15;5.82;;;;;;;30.57;42.47;98847.69;3687943;23;20037;-72
2021/08/06 06:58:08;;;;;;;13.75;5.78;;;;;;;31.37;41.23;98823.97;3656631;23;21082;-73
2021/08/06 07:13:03;;;;;;;11.95;5.68;;;;;;;30.95;40.72;98839.31;3688374;23;20049;-71
2021/08/06 07:15:39;;;;;;;13.95;5.22;;;;;;;31.40;41.01;98838.53;3596048;24;20074;-73
2021/08/06 07:18:11;;;;;;;16.40;5.00;;;;;;;31.53;40.14;98833.28;1511981;23;20219;-74
2021/08/06 07:26:00;;;;;;;13.13;5.85;;;;;;;31.62;39.96;98829.41;1445067;23;21373;-74
2021/08/06 07:35:55;;;;;;;11.40;5.15;;;;;;;31.57;40.97;98834.47;1442789;23;20191;-75
2021/08/06 07:38:46;;;;;;;10.75;5.05;;;;;;;31.28;40.60;98832.25;3623877;23;20030;31
2021/08/06 07:51:09;;;;;;;13.63;5.50;;;;;;;31.44;40.99;98834.47;1374226;23;20188;-72
2021/08/06 07:53:38;;;;;;;15.35;5.32;;;;;;;31.68;40.98;98831.22;3644939;23;20034;31
2021/08/06 07:56:07;;;;;;;14.95;5.28;;;;;;;31.25;41.13;98825.59;3576338;23;20042;31
2021/08/06 07:58:58;;;;;;;16.27;5.53;;;;;;;31.36;41.51;98824.97;1315925;23;20180;31
2021/08/06 08:04:24;;;;;;;9.40;4.53;;;;;;;31.58;40.56;98828.19;1308146;23;20341;-72
2021/08/06 08:09:36;;;;;;;13.38;4.60;;;;;;;31.56;40.89;98806.56;1414044;23;20263;31
2021/08/06 08:17:09;;;;;;;12.93;4.57;;;;;;;32.15;39.71;98811.69;1374550;23;20179;-73
2021/08/06 08:19:42;;;;;;;11.05;4.50;;;;;;;32.33;39.39;98828.38;1438261;23;20180;-73
2021/08/06 08:32:06;;;;;;;11.57;4.78;;;;;;;31.87;40.28;98821.66;3688168;23;20052;-72
2021/08/06 08:34:49;;;;;;;9.52;4.60;;;;;;;31.37;42.23;98823.16;3562149;24;20051;-71
2021/08/06 08:40:22;;;;;;;9.32;4.03;;;;;;;31.45;41.62;98822.97;1373479;23;21065;-73
2021/08/06 08:50:33;;;;;;;13.18;4.10;;;;;;;31.74;39.80;98840.09;1445772;23;20193;-73
2021/08/06 09:20:39;;;;;;;8.15;3.80;;;;;;;32.05;39.14;98832.38;3624798;23;20054;-72
2021/08/06 09:28:27;;;;;;;7.32;3.15;;;;;;;32.07;38.93;98839.00;1310864;23;20229;-72
2021/08/06 09:31:15;;;;;;;8.05;3.20;;;;;;;32.20;38.62;98838.97;3597187;23;20078;-72
2021/08/06 09:33:44;;;;;;;8.20;3.38;;;;;;;32.25;39.31;98841.78;3617163;23;20043;31
2021/08/06 10:04:37;;;;;;;8.48;4.20;;;;;;;33.08;37.71;98818.84;1329721;23;21073;31
2021/08/06 10:07:15;;;;;;;8.75;4.55;;;;;;;33.15;36.99;98811.69;1438609;24;20236;-74
2021/08/06 10:10:07;;;;;;;7.63;3.40;;;;;;;32.91;36.76;98815.91;1236235;24;20226;-73
2021/08/06 10:29:58;;;;;;;9.07;3.90;;;;;;;33.35;35.10;98804.41;3655232;23;20824;-73
2021/08/06 10:35:49;;;;;;;8.10;4.32;;;;;;;34.05;34.59;98795.97;1308334;23;20191;-74
2021/08/06 10:46:18;;;;;;;6.00;3.85;;;;;;;33.86;34.41;98802.25;3650442;23;20048;-75
2021/08/06 10:48:53;;;;;;;5.80;3.83;;;;;;;34.46;34.49;98794.41;3683851;23;23353;-73
2021/08/06 10:51:31;;;;;;;6.55;3.67;;;;;;;34.14;34.30;98793.81;3587805;23;20098;-74
2021/08/06 11:02:34;;;;;;;7.88;3.92;;;;;;;33.68;35.09;98790.91;1241664;23;20179;-74
2021/08/06 11:15:21;;;;;;;7.65;4.18;;;;;;;33.87;34.63;98795.94;3623259;23;20072;-74
2021/08/06 11:38:09;;;;;;;9.00;4.25;;;;;;;32.22;36.78;98809.81;1310197;23;21032;-74
2021/08/06 11:40:47;;;;;;;7.25;4.05;;;;;;;32.11;36.65;98802.59;1798276;23;25017;-75
2021/08/06 12:01:33;;;;;;;6.95;3.95;;;;;;;31.17;41.04;98811.84;1512107;23;20301;-73
2021/08/06 12:04:02;;;;;;;6.70;3.88;;;;;;;31.35;41.64;98827.81;1330199;23;20271;31
2021/08/06 12:12:02;;;;;;;7.13;3.60;;;;;;;30.54;42.64;98826.28;1376878;23;20193;-72
2021/08/06 12:27:06;;;;;;;7.70;4.00;;;;;;;30.63;42.15;98818.03;1235883;23;20190;-74
2021/08/06 12:44:34;;;;;;;5.00;2.95;;;;;;;30.18;39.03;98818.69;3559133;23;20073;-74
2021/08/06 12:52:24;;;;;;;8.35;3.10;;;;;;;30.13;38.99;98828.94;1376835;23;21647;-73
2021/08/06 13:00:03;;;;;;;4.10;2.80;;;;;;;29.66;39.91;98824.44;1309459;23;20190;-73
2021/08/06 13:08:41;;;;;;;4.65;2.42;;;;;;;29.63;40.77;98821.41;1375125;23;20046;-71
2021/08/06 13:11:15;;;;;;;5.97;2.45;;;;;;;29.40;41.01;98828.69;1280899;23;20214;31
2021/08/06 13:26:10;;;;;;;5.65;2.38;;;;;;;29.75;38.49;98846.91;1377527;23;20267;-72
2021/08/06 13:31:44;;;;;;;4.20;2.78;;;;;;;29.71;37.70;98853.53;1242061;23;21495;-73
2021/08/06 13:42:11;;;;;;;3.72;2.60;;;;;;;29.58;37.48;98848.19;1375897;23;20401;-74
2021/08/06 13:52:29;;;;;;;6.40;3.10;;;;;;;29.19;38.94;98847.06;1309023;23;20211;-72
2021/08/06 14:18:33;;;;;;;5.43;4.00;;;;;;;28.97;39.01;98878.47;1170735;23;20310;-74
2021/08/06 14:21:23;;;;;;;5.80;3.85;;;;;;;28.56;39.42;98880.06;1240089;23;20360;-73
2021/08/06 14:29:19;;;;;;;4.65;4.18;;;;;;;28.81;39.40;98870.88;1169933;23;21542;-75
2021/08/06 14:40:01;;;;;;;4.32;3.65;;;;;;;28.52;41.03;98864.88;3654656;23;20705;-74
2021/08/06 14:45:21;;;;;;;5.13;4.28;;;;;;;28.56;41.32;98866.16;1240588;23;21999;-75
2021/08/06 14:52:45;;;;;;;5.00;4.47;;;;;;;28.61;42.57;98871.66;3485686;41;20053;-70
2021/08/06 15:05:08;;;;;;;6.07;4.72;;;;;;;28.50;45.01;98898.25;3488661;41;20332;-69
2021/08/06 15:07:35;;;;;;;8.52;4.60;;;;;;;28.49;45.04;98894.00;3491113;41;20049;-72
2021/08/06 15:24:56;;;;;;;7.38;3.90;;;;;;;28.61;46.65;98889.97;2997175;23;20126;-72
2021/08/06 15:27:22;;;;;;;5.63;3.50;;;;;;;28.60;46.48;98899.63;3461373;41;20050;-71
2021/08/06 15:29:49;;;;;;;7.05;3.47;;;;;;;28.75;46.35;98895.16;3461186;41;20050;-70
2021/08/06 15:32:16;;;;;;;5.88;3.65;;;;;;;28.65;46.84;98894.66;3464149;41;20473;-71
2021/08/06 15:34:42;;;;;;;4.45;3.90;;;;;;;28.61;47.05;98901.25;3454600;41;20047;-70
2021/08/06 15:37:08;;;;;;;7.38;4.10;;;;;;;28.66;48.17;98908.56;3466649;41;20046;-71
2021/08/06 15:39:35;;;;;;;5.60;3.85;;;;;;;28.61;47.81;98910.88;3467219;41;20099;-70
2021/08/06 15:42:04;;;;;;;5.30;3.47;;;;;;;28.52;47.74;98917.22;3465427;41;20064;-71
2021/08/06 15:44:31;;;;;;;5.25;3.55;;;;;;;28.63;47.86;98921.97;3467018;41;20077;-69
2021/08/06 15:46:58;;;;;;;4.22;3.60;;;;;;;28.72;47.65;98923.53;3463298;41;20043;-70
2021/08/06 15:49:24;;;;;;;4.70;3.58;;;;;;;28.62;47.28;98931.66;3467506;41;20035;-71
2021/08/06 15:51:49;;;;;;;5.88;4.20;;;;;;;28.84;46.94;98935.13;3467688;41;20054;-72
2021/08/06 15:54:16;;;;;;;5.10;3.42;;;;;;;28.81;46.32;98938.09;3465662;41;20184;-72
2021/08/06 15:56:42;;;;;;;18.13;4.68;;;;;;;28.87;46.31;98938.19;3463885;41;20118;-73
2021/08/06 15:59:09;;;;;;;6.25;3.85;;;;;;;28.96;46.34;98950.16;3467355;41;20046;-71
2021/08/06 16:01:34;;;;;;;6.07;3.83;;;;;;;28.89;47.31;98962.38;3468150;41;20079;-72
2021/08/06 16:04:04;;;;;;;4.85;3.72;;;;;;;28.94;46.07;98954.75;3467802;41;20059;-77
2021/08/06 16:06:30;;;;;;;7.35;3.65;;;;;;;29.42;46.38;98958.50;3469579;41;20282;-72
2021/08/06 16:08:56;;;;;;;6.22;3.90;;;;;;;28.97;46.60;98962.25;3455898;41;20039;-72
2021/08/06 16:11:22;;;;;;;17.27;4.72;;;;;;;28.45;55.39;98958.97;3469331;41;20054;-73
2021/08/06 16:13:48;;;;;;;9.55;4.28;;;;;;;28.20;56.52;98968.91;3466720;41;20070;-71
2021/08/06 16:16:14;;;;;;;6.22;4.20;;;;;;;27.85;57.46;98963.50;3468136;41;20707;-72
2021/08/06 16:18:39;;;;;;;6.43;3.67;;;;;;;27.75;57.24;98962.94;3458644;41;20514;-71
2021/08/06 16:21:08;;;;;;;7.25;4.28;;;;;;;28.04;57.48;98966.47;3463996;41;20491;-71
2021/08/06 16:29:04;;;;;;;6.50;3.90;;;;;;;28.22;53.82;98961.69;3470242;41;20162;-73
2021/08/06 16:31:31;;;;;;;5.65;3.70;;;;;;;28.16;53.62;98959.81;3473776;41;20050;-69
2021/08/06 16:33:57;;;;;;;5.28;3.78;;;;;;;28.36;51.63;98964.47;3470824;41;20049;-70
2021/08/06 16:36:23;;;;;;;8.23;3.50;;;;;;;28.36;50.83;98970.53;3470594;41;20050;-69
2021/08/06 16:38:48;;;;;;;5.25;4.10;;;;;;;28.57;52.63;98975.88;3470498;41;20064;-72
2021/08/06 16:41:14;;;;;;;4.70;4.00;;;;;;;28.37;50.46;98972.13;3470846;41;20050;-70
2021/08/06 16:43:40;;;;;;;5.70;3.90;;;;;;;28.24;50.45;98975.41;3472691;41;20078;-71
2021/08/06 16:46:06;;;;;;;6.90;3.78;;;;;;;28.37;50.47;98980.00;3471631;41;20303;-71
2021/08/06 16:48:33;;;;;;;6.35;3.70;;;;;;;28.40;50.22;98984.06;3470785;41;20443;-70
2021/08/06 16:50:58;;;;;;;8.45;6.15;;;;;;;28.04;54.69;98990.00;3472969;41;20333;-70
2021/08/06 16:53:24;;;;;;;9.60;5.70;;;;;;;27.76;56.02;98991.50;3476815;41;20050;-69
2021/08/06 16:55:50;;;;;;;13.88;7.40;;;;;;;27.64;56.42;98992.91;3468048;41;20038;-71
2021/08/06 16:58:17;;;;;;;14.80;7.00;;;;;;;27.52;57.44;98996.91;3466158;41;20046;-70
2021/08/06 17:00:45;;;;;;;8.38;5.55;;;;;;;27.45;56.35;99009.84;3470706;41;20050;-72
2021/08/06 17:03:14;;;;;;;8.43;5.40;;;;;;;27.72;54.42;98998.06;3474278;41;20102;-70
2021/08/06 17:05:40;;;;;;;18.17;8.75;;;;;;;27.54;56.88;98999.34;3472117;41;20078;-71
2021/08/06 17:08:06;;;;;;;6.70;5.57;;;;;;;27.46;56.60;99010.69;3473249;41;20050;-72
2021/08/06 17:10:32;;;;;;;11.98;5.40;;;;;;;27.22;56.74;99018.63;3467247;41;20154;-71
2021/08/06 17:12:58;;;;;;;10.93;5.68;;;;;;;27.26;57.30;99010.28;3475866;41;20042;-70
2021/08/06 17:15:24;;;;;;;7.22;5.30;;;;;;;27.33;56.00;99018.28;3461055;41;20043;-69
2021/08/06 17:17:50;;;;;;;6.70;5.22;;;;;;;27.53;55.91;99022.06;3470519;41;20428;-70
2021/08/06 17:20:16;;;;;;;6.00;5.15;;;;;;;27.57;55.05;99018.13;3469922;41;20050;-71
2021/08/06 17:22:41;;;;;;;7.18;5.28;;;;;;;26.98;56.57;99016.16;3461206;41;20042;-68
2021/08/06 17:25:09;;;;;;;7.68;5.55;;;;;;;26.90;57.63;99029.25;3470276;41;20038;-69
2021/08/06 17:27:35;;;;;;;8.27;5.60;;;;;;;27.00;57.53;99019.41;3471250;41;20061;-70
2021/08/06 17:30:04;;;;;;;8.50;5.60;;;;;;;26.92;59.67;99016.84;3472745;41;20070;-70
2021/08/06 17:37:29;;;;;;;6.38;3.67;;;;;;;27.17;53.84;99005.28;3489397;41;20048;-73
2021/08/06 17:39:56;;;;;;;5.50;3.88;;;;;;;27.10;53.17;99006.94;3491809;41;20038;-72
2021/08/06 17:52:47;;;;;;;7.63;3.53;;;;;;;27.57;50.69;99025.16;3654472;23;20048;-76
2021/08/06 17:55:45;;;;;;;9.63;3.70;;;;;;;27.36;50.59;99023.16;1308839;23;21070;-72
2021/08/06 17:58:11;;;;;;;5.18;3.70;;;;;;;27.58;52.00;99024.13;3488134;41;20037;-71
2021/08/06 18:00:37;;;;;;;3.92;2.97;;;;;;;27.44;51.16;99034.38;3486391;41;20045;-70
2021/08/06 18:03:06;;;;;;;6.45;4.00;;;;;;;27.52;50.58;99035.28;3486153;41;20115;-73
2021/08/06 18:05:31;;;;;;;5.57;3.30;;;;;;;27.50;50.68;99039.88;3488854;41;20445;-71
2021/08/06 18:07:58;;;;;;;5.88;3.60;;;;;;;27.36;51.01;99044.03;3486297;41;20056;-73
2021/08/06 18:10:27;;;;;;;4.50;3.40;;;;;;;27.55;50.05;99050.63;3489344;41;20026;-72
2021/08/06 18:17:56;;;;;;;5.32;3.10;;;;;;;27.24;49.41;99059.25;3479578;41;20052;-71
2021/08/06 18:20:25;;;;;;;4.13;3.05;;;;;;;27.46;47.37;99073.34;3479772;41;20046;-71
2021/08/06 18:28:21;;;;;;;4.45;1.88;;;;;;;27.77;43.40;99081.19;1239494;23;21485;-73
2021/08/06 18:35:46;;;;;;;4.38;1.50;;;;;;;27.74;42.84;99081.50;3486860;41;20045;-71
2021/08/06 18:38:12;;;;;;;3.47;1.40;;;;;;;27.56;41.98;99088.81;3483718;41;20525;-70
2021/08/06 18:40:40;;;;;;;2.50;1.63;;;;;;;27.72;42.51;99086.91;3482098;41;20541;-70
2021/08/06 18:43:08;;;;;;;3.42;1.05;;;;;;;27.61;41.96;99087.31;3478355;41;20042;-73
2021/08/06 18:45:34;;;;;;;5.75;1.45;;;;;;;27.57;41.34;99086.03;3486331;41;20089;-71
2021/08/06 18:48:01;;;;;;;2.20;1.13;;;;;;;27.49;41.79;99090.50;3485484;41;20048;-70
2021/08/06 18:50:31;;;;;;;4.10;1.30;;;;;;;27.64;41.26;99080.91;3486007;41;20049;-71
2021/08/06 18:53:02;;;;;;;1.50;1.10;;;;;;;27.48;41.83;99094.06;3485058;41;20336;-73
2021/08/06 18:55:28;;;;;;;4.00;1.30;;;;;;;27.37;41.08;99085.63;3483722;41;20421;-72
2021/08/06 18:57:55;;;;;;;1.85;1.00;;;;;;;27.41;41.40;99097.38;3478280;41;20141;-71
2021/08/06 19:00:20;;;;;;;7.53;1.40;;;;;;;27.45;41.82;99103.88;3479727;41;20030;-69
2021/08/06 19:02:46;;;;;;;2.92;1.00;;;;;;;27.34;41.38;99101.66;3481233;41;20074;-70
2021/08/06 19:05:12;;;;;;;2.63;1.27;;;;;;;27.22;41.50;99097.78;3470631;41;20049;-70
2021/08/06 19:07:38;;;;;;;1.73;1.00;;;;;;;27.36;40.99;99101.50;3480236;41;20074;-70
2021/08/06 19:10:06;;;;;;;4.30;1.13;;;;;;;27.24;41.16;99105.44;3481009;41;20770;-71
2021/08/06 19:12:33;;;;;;;4.63;1.10;;;;;;;27.21;41.38;99100.56;3482102;41;20042;-71
2021/08/06 19:14:59;;;;;;;5.40;1.13;;;;;;;27.14;41.18;99116.09;3479198;41;20442;-71
2021/08/06 19:17:24;;;;;;;6.47;1.40;;;;;;;27.26;40.76;99114.72;3480988;41;20049;-69
2021/08/06 19:19:51;;;;;;;1.90;1.30;;;;;;;27.16;40.71;99108.91;3471818;41;20050;-70
2021/08/06 19:22:23;;;;;;;3.25;1.40;;;;;;;27.08;41.39;99105.50;3481560;41;20067;-68
2021/08/06 19:24:50;;;;;;;2.78;1.30;;;;;;;26.97;41.31;99111.09;3480444;41;20052;-71
2021/08/06 19:27:17;;;;;;;5.57;1.60;;;;;;;27.01;41.54;99110.59;3480901;41;20049;-68
2021/08/06 19:29:42;;;;;;;2.53;1.65;;;;;;;26.97;41.60;99096.25;3471225;41;20082;-68
2021/08/06 19:32:09;;;;;;;3.97;1.80;;;;;;;26.90;41.84;99104.94;3479729;41;20049;-68
2021/08/06 19:34:36;;;;;;;4.22;1.33;;;;;;;26.89;41.61;99111.09;3481541;41;20054;-70
2021/08/06 19:37:05;;;;;;;3.75;1.60;;;;;;;26.93;41.70;99108.00;3483813;41;20405;-68
2021/08/06 19:39:34;;;;;;;4.60;1.55;;;;;;;26.82;41.82;99099.72;3485159;41;20352;-70
2021/08/06 19:42:02;;;;;;;2.10;1.23;;;;;;;26.74;42.00;99102.34;3475504;41;20069;-69
2021/08/06 19:44:28;;;;;;;4.65;1.60;;;;;;;26.86;41.40;99101.81;3484106;41;20393;-71
2021/08/06 19:46:54;;;;;;;1.88;1.30;;;;;;;26.79;41.67;99094.84;3483391;41;20471;-69
2021/08/06 19:49:21;;;;;;;2.15;1.35;;;;;;;26.69;41.88;99107.22;3483620;41;20049;-69
2021/08/06 19:51:51;;;;;;;4.30;1.27;;;;;;;26.67;42.32;99109.16;3483357;41;20038;-69
2021/08/06 19:54:18;;;;;;;1.33;1.13;;;;;;;26.61;42.43;99123.69;3483213;41;20321;-70
2021/08/06 19:56:44;;;;;;;3.20;1.40;;;;;;;26.48;42.88;99105.16;3473246;41;20051;-70
2021/08/06 19:59:10;;;;;;;3.50;1.48;;;;;;;26.38;43.54;99117.53;3483283;41;20042;-69
2021/08/06 20:01:37;;;;;;;4.50;1.27;;;;;;;26.32;43.55;99112.97;3474415;41;20162;-70
2021/08/06 20:04:05;;;;;;;2.55;1.48;;;;;;;26.35;42.60;99112.63;3473892;41;20402;-68
2021/08/06 20:06:32;;;;;;;2.20;1.60;;;;;;;26.23;43.21;99106.13;3484020;41;20049;-70
2021/08/06 20:08:58;;;;;;;2.60;1.52;;;;;;;26.30;42.98;99115.75;3484178;41;20398;-71
2021/08/06 20:11:24;;;;;;;3.88;1.65;;;;;;;26.22;43.10;99109.72;3483704;41;20046;-72
2021/08/06 20:13:50;;;;;;;2.03;1.60;;;;;;;26.17;42.83;99112.00;3483491;41;20040;-69
2021/08/06 20:16:16;;;;;;;4.85;1.60;;;;;;;26.16;42.71;99129.44;3474618;41;20049;-69
2021/08/06 20:18:42;;;;;;;5.55;2.00;;;;;;;26.15;42.85;99140.00;3474926;41;20393;-70
2021/08/06 20:21:08;;;;;;;4.50;1.92;;;;;;;26.16;43.09;99133.84;3485381;41;20053;-69
2021/08/06 20:23:37;;;;;;;3.85;1.80;;;;;;;26.04;42.90;99143.72;3486188;41;20309;-70
2021/08/06 20:26:06;;;;;;;2.25;1.88;;;;;;;26.07;43.08;99148.63;3486093;41;20068;-70
2021/08/06 20:28:32;;;;;;;3.30;1.55;;;;;;;26.13;42.89;99134.16;3485338;41;20038;-70
2021/08/06 20:30:58;;;;;;;4.32;1.70;;;;;;;26.15;42.58;99145.22;3477381;41;20435;-71
2021/08/06 20:33:24;;;;;;;3.55;1.63;;;;;;;26.10;42.53;99137.09;3485680;41;20037;-69
2021/08/06 20:35:50;;;;;;;3.20;1.65;;;;;;;26.08;42.67;99146.84;3480886;41;20072;-72
2021/08/06 20:38:16;;;;;;;5.22;1.58;;;;;;;26.11;42.54;99136.91;3478921;41;20034;-70
2021/08/06 20:40:42;;;;;;;3.85;1.30;;;;;;;26.06;42.60;99144.41;3478064;41;20037;-70
2021/08/06 20:43:08;;;;;;;3.97;1.73;;;;;;;26.05;42.45;99145.34;3475278;41;20046;-69
2021/08/06 20:45:34;;;;;;;3.35;1.65;;;;;;;26.15;42.78;99140.00;3476307;41;20042;-70
2021/08/06 20:48:00;;;;;;;3.15;1.65;;;;;;;25.99;42.79;99143.38;3475423;41;20042;-69
2021/08/06 20:50:26;;;;;;;4.18;1.80;;;;;;;26.06;42.71;99152.25;3480433;41;20062;-70
2021/08/06 20:52:52;;;;;;;3.22;1.40;;;;;;;25.96;43.28;99143.72;3479087;41;20053;-70
2021/08/06 20:55:18;;;;;;;3.75;1.88;;;;;;;25.97;42.07;99147.16;3475426;41;20042;-72
2021/08/06 20:57:43;;;;;;;5.50;2.00;;;;;;;25.95;42.88;99160.31;3474703;41;20072;-69
2021/08/06 21:00:09;;;;;;;4.32;2.08;;;;;;;25.92;42.27;99155.44;3474600;41;20134;-70
2021/08/06 21:02:36;;;;;;;3.67;2.20;;;;;;;25.95;42.88;99152.50;3474556;41;20042;-70
2021/08/06 21:05:03;;;;;;;4.90;2.30;;;;;;;25.84;43.19;99159.81;3476174;41;20186;-70
2021/08/06 21:07:29;;;;;;;4.22;2.30;;;;;;;25.90;42.61;99161.78;3475987;41;20049;-70
2021/08/06 21:09:55;;;;;;;3.35;2.40;;;;;;;25.86;42.69;99170.88;3476539;41;20313;-70
2021/08/06 21:12:21;;;;;;;2.97;2.00;;;;;;;25.64;43.55;99172.28;3466501;41;20035;-69
2021/08/06 21:14:47;;;;;;;3.72;2.40;;;;;;;25.81;42.77;99188.78;3475632;41;20042;-69
2021/08/06 21:22:23;;;;;;;3.35;2.35;;;;;;;25.57;43.80;99186.94;3481575;41;20048;-69
2021/08/06 21:24:49;;;;;;;3.63;1.92;;;;;;;25.67;43.06;99190.22;3482600;41;20030;-70
2021/08/06 21:27:15;;;;;;;5.82;1.77;;;;;;;25.50;43.93;99202.34;3475220;41;20314;-72
2021/08/06 21:29:41;;;;;;;4.43;2.20;;;;;;;25.58;43.25;99205.00;3475982;41;20042;-70
2021/08/06 21:32:08;;;;;;;3.35;1.90;;;;;;;25.53;44.17;99203.84;3476350;41;20434;-70
2021/08/06 21:34:33;;;;;;;6.10;2.03;;;;;;;25.68;43.22;99197.06;3474948;41;20038;-69
2021/08/06 21:37:02;;;;;;;3.65;1.70;;;;;;;25.55;43.58;99197.47;3475963;41;20030;-70
2021/08/06 21:39:28;;;;;;;2.38;1.88;;;;;;;25.52;43.40;99191.78;3475393;41;20042;-72
2021/08/06 21:41:53;;;;;;;2.75;1.70;;;;;;;25.54;44.02;99180.25;3482371;41;20413;-69
2021/08/06 21:44:20;;;;;;;5.82;1.80;;;;;;;25.43;43.62;99183.09;3474743;41;20038;-71
2021/08/06 21:46:46;;;;;;;2.53;1.80;;;;;;;25.44;43.73;99189.97;3476397;41;20765;-73
2021/08/06 21:49:13;;;;;;;2.47;1.50;;;;;;;25.45;43.84;99188.97;3476230;41;20310;-70
2021/08/06 21:51:42;;;;;;;2.63;1.58;;;;;;;25.53;43.36;99181.19;3482867;41;20041;-70
2021/08/06 21:54:08;;;;;;;3.13;1.60;;;;;;;25.36;43.96;99187.28;3482675;41;20098;-69
2021/08/06 21:56:35;;;;;;;2.22;1.50;;;;;;;25.41;43.82;99189.47;3475918;41;20042;-68
2021/08/06 21:59:01;;;;;;;3.05;1.60;;;;;;;25.32;44.16;99190.34;3475861;41;20041;-69
2021/08/06 22:01:28;;;;;;;4.28;1.45;;;;;;;25.43;44.34;99198.72;3475580;41;20122;-70
2021/08/06 22:03:54;;;;;;;2.35;1.80;;;;;;;25.27;44.84;99187.41;3475267;41;20034;-69
2021/08/06 22:06:20;;;;;;;2.70;1.73;;;;;;;25.34;44.73;99189.22;3475971;41;20463;-70
2021/08/06 22:08:46;;;;;;;4.10;1.40;;;;;;;25.35;44.93;99195.25;3475657;41;20042;-70
2021/08/06 22:11:12;;;;;;;4.82;1.90;;;;;;;25.40;44.03;99196.44;3482974;41;20038;-71
2021/08/06 22:13:38;;;;;;;2.33;1.70;;;;;;;25.32;44.24;99204.19;3473208;41;20085;-69
2021/08/06 22:16:04;;;;;;;3.95;1.60;;;;;;;25.37;43.70;99204.56;3474964;41;20434;-72
2021/08/06 22:18:30;;;;;;;3.85;1.63;;;;;;;25.37;44.57;99201.97;3474919;41;20042;-70
2021/08/06 22:20:56;;;;;;;3.80;1.70;;;;;;;25.26;44.65;99199.59;3474971;41;20038;-70
2021/08/06 22:29:23;;;;;;;6.50;1.90;;;;;;;25.28;44.74;99187.25;3482904;41;19970;-68
2021/08/06 22:31:49;;;;;;;4.93;1.70;;;;;;;25.21;44.84;99191.47;3474843;41;20022;-69
2021/08/06 22:34:15;;;;;;;3.17;1.60;;;;;;;25.21;44.81;99194.06;3474290;41;20070;-71
2021/08/06 22:36:40;;;;;;;6.82;1.60;;;;;;;25.13;44.97;99193.19;3474890;41;20307;-70
2021/08/06 22:39:06;;;;;;;2.13;1.50;;;;;;;25.12;45.61;99189.75;3475909;41;20122;-70
2021/08/06 22:41:32;;;;;;;2.20;1.50;;;;;;;25.26;44.97;99196.19;3475845;41;20049;-67
2021/08/06 22:43:59;;;;;;;3.38;1.60;;;;;;;25.19;45.78;99190.78;3474581;41;20167;-75
2021/08/06 22:46:25;;;;;;;1.95;1.42;;;;;;;25.19;45.76;99200.38;3475124;41;20521;-69
2021/08/06 22:48:51;;;;;;;2.30;1.40;;;;;;;25.17;45.78;99203.16;3474206;41;20046;-69
2021/08/06 22:51:17;;;;;;;2.95;1.70;;;;;;;25.12;45.96;99200.19;3476038;41;20413;-69
2021/08/06 22:53:44;;;;;;;3.00;1.88;;;;;;;25.01;46.56;99200.44;3476487;41;20038;-68
2021/08/06 22:56:09;;;;;;;2.20;1.60;;;;;;;25.12;45.78;99204.56;3474885;41;20054;-70
2021/08/06 22:58:35;;;;;;;4.03;1.60;;;;;;;25.06;46.79;99197.41;3478071;41;20030;-70
2021/08/06 23:01:01;;;;;;;2.72;1.77;;;;;;;25.06;46.93;99211.19;3478108;41;20098;-73
2021/08/06 23:03:27;;;;;;;2.17;1.80;;;;;;;25.08;46.74;99209.25;3476326;41;20136;-70
2021/08/06 23:05:53;;;;;;;1.98;1.75;;;;;;;25.01;46.66;99210.84;3476624;41;20430;-71
2021/08/06 23:08:19;;;;;;;2.08;1.70;;;;;;;24.96;46.59;99210.47;3477379;41;20039;-70
2021/08/06 23:10:45;;;;;;;4.32;1.83;;;;;;;24.94;47.45;99220.22;3477467;41;20077;-70
2021/08/06 23:13:10;;;;;;;3.10;1.92;;;;;;;25.00;46.77;99205.81;3475572;41;20162;-71
2021/08/06 23:15:36;;;;;;;3.50;1.90;;;;;;;24.82;47.63;99208.44;3474329;41;20038;-69
2021/08/06 23:18:02;;;;;;;2.83;1.95;;;;;;;24.84;47.29;99225.53;3473996;41;20045;-71
2021/08/06 23:20:28;;;;;;;3.28;2.15;;;;;;;24.74;47.94;99217.00;3475278;41;20053;-70
2021/08/06 23:22:56;;;;;;;3.55;2.30;;;;;;;24.81;47.84;99219.81;3475203;41;20086;-72
2021/08/06 23:25:23;;;;;;;4.88;2.60;;;;;;;24.86;47.19;99213.19;3474485;41;20048;-71
2021/08/06 23:27:49;;;;;;;3.55;2.78;;;;;;;24.71;47.54;99211.25;3475444;41;20064;-70
2021/08/06 23:30:18;;;;;;;5.35;3.10;;;;;;;24.72;48.17;99212.91;3474880;41;20061;-72
2021/08/06 23:32:45;;;;;;;8.27;3.35;;;;;;;24.52;48.63;99211.44;3474728;41;20086;-71
2021/08/06 23:35:12;;;;;;;4.47;2.88;;;;;;;24.59;47.79;99215.06;3476371;41;20082;-70
2021/08/06 23:37:40;;;;;;;4.05;2.80;;;;;;;24.57;48.52;99222.19;3475977;41;20094;-68
2021/08/06 23:40:09;;;;;;;4.93;2.78;;;;;;;24.65;48.11;99227.47;3476598;41;20399;-69
2021/08/06 23:42:35;;;;;;;3.75;2.67;;;;;;;24.67;48.32;99231.53;3476898;41;20042;-70
2021/08/06 23:45:02;;;;;;;3.75;2.40;;;;;;;24.66;48.35;99223.91;3476671;41;20424;-70
2021/08/06 23:47:28;;;;;;;2.78;2.33;;;;;;;24.46;48.78;99231.06;3475782;41;20038;-71
2021/08/06 23:49:54;;;;;;;4.75;2.40;;;;;;;24.71;48.35;99238.06;3475342;41;20037;-70
2021/08/06 23:52:20;;;;;;;4.15;2.30;;;;;;;24.37;49.02;99234.53;3468397;41;20086;-69
2021/08/06 23:54:46;;;;;;;3.08;1.98;;;;;;;24.42;49.29;99231.50;3476766;41;20404;-69